Oscoda, MI (48750)

10:31 PM EDT on September 03, 2015 (GMT -0400)
Oscoda-Wurtsmith | | Change Station
CLOSE
Current Station
Airport
Location: Oscoda,
Elevation: 633 ft
Nearby Weather Stations

Elev 633 ft 44.45 °N, 83.39 °W | Updated 18 minutes ago

Overcast
Overcast
68 °F
Feels Like 68 °F
N
0
Wind Variable Wind from North

Today
High -- | Low -- °F
--% Chance of Precip.
Yesterday
High -- | Low -- °F
Precip. -- in
6:58 AM 8:07 PM
Waning Gibbous, 64% visible
Pressure 29.95 in
Visibility 7.0 miles
Clouds Scattered Clouds 600 ft
Scattered Clouds 5000 ft
Overcast 11000 ft
Dew Point 67 °F
Humidity 97%
Rainfall 0.78 in
Snow Depth Not available.
UV 0 out of 12
Pollen 10.00 out of 12
Air Quality Not available.
Flu Activity Not available.
METAR KOSC 040213Z AUTO 00000KT 7SM SCT006 SCT050 OVC110 20/19 A2995 RMK AO2 T01970192
Pressure 29.95 in
Visibility 7.0 miles
Clouds Scattered Clouds 600 ft
Scattered Clouds 5000 ft
Overcast 11000 ft
Dew Point 67 °F
Humidity 97%
Rainfall 0.78 in
Snow Depth Not available.
UV 0 out of 12
Pollen 10.00 out of 12
Air Quality Not available.
Flu Activity Not available.
METAR KOSC 040213Z AUTO 00000KT 7SM SCT006 SCT050 OVC110 20/19 A2995 RMK AO2 T01970192
Nowcast | as of 10:00 PM EDT on September 3, 2015

At 11 PM...showers. Temperature 67. East winds 6 mph. At 1 am...showers. Temperature 67. Light winds. At 3 am...areas of fog. Numerous showers. Temperature 67. East winds 5 mph. At 5 am...areas of fog. Numerous showers. Temperature 67. East winds 6 mph.

×

10-Day Weather Forecast

×

Almanac

Astronomy

Sep. 03, 2015 Rise Set
Actual Time
Civil Twilight
Nautical Twilight
Astronomical Twilight
Moon
Length of Visible Light
Length of Day
Tomorrow will be .
, % of the Moon is Illuminated

Today's Extremes

State Highs State Lows

Community

WunderPhotos

Upload Photos

1,852,106 photos uploaded!

WunderBlogs® & News

Nearby

Air Quality

  Air Quality AQ Index Pollutant
Not available.

Snow Depth

Station Depth Elevation

Earthquake Activity

City Distance Mag. Time & Date
Minimum magnitude displayed is 2.5.

Coastal Water Temperatures

Place Temperature

Stations

Nearby Weather Stations

Station Location Temp. Windchill Dew Point Humidity Wind Precip. Elev Updated Type